Time;durP1;ratioP1;P1;durP2;ratioP2;P2;SDS_P1;SDS_P2;PMS_P1;PMS_P2;Temp;Humidity;BMP_temperature;BMP_pressure;BME280_temperature;BME280_humidity;BME280_pressure;Samples;Min_cycle;Max_cycle;Signal;HPM_P1;HPM_P2
2023/05/23 00:00:08;;;;;;;3.97;2.72;;;18.90;99.90;;;;;;4959917;28;20203;-64
2023/05/23 00:02:36;;;;;;;3.42;3.15;;;19.00;99.90;;;;;;4957904;28;20898;-65
2023/05/23 00:05:06;;;;;;;1.83;1.73;;;18.90;99.90;;;;;;4959208;28;20222;-64
2023/05/23 00:07:34;;;;;;;4.30;4.00;;;19.00;99.90;;;;;;4952203;28;20204;-64
2023/05/23 00:10:02;;;;;;;3.50;3.20;;;19.00;99.90;;;;;;4962838;28;20211;-64
2023/05/23 00:12:32;;;;;;;3.70;3.42;;;18.90;99.90;;;;;;4953845;28;20644;-64
2023/05/23 00:15:00;;;;;;;3.50;3.20;;;18.90;99.90;;;;;;4951364;29;20732;-64
2023/05/23 00:17:28;;;;;;;4.88;2.90;;;18.90;99.90;;;;;;4963027;28;20590;-64
2023/05/23 00:19:56;;;;;;;3.97;3.17;;;18.90;99.90;;;;;;4965476;28;20206;-64
2023/05/23 00:22:23;;;;;;;4.35;3.97;;;18.90;99.90;;;;;;4958737;28;20215;-64
2023/05/23 00:24:52;;;;;;;3.90;2.85;;;18.80;99.90;;;;;;4956794;28;20223;-64
2023/05/23 00:27:20;;;;;;;2.45;2.25;;;18.80;99.90;;;;;;4962597;28;20210;-64
2023/05/23 00:29:49;;;;;;;2.35;2.15;;;18.80;99.90;;;;;;4962179;28;20215;-63
2023/05/23 00:32:17;;;;;;;2.88;2.67;;;18.80;99.90;;;;;;4961963;28;20235;-64
2023/05/23 00:34:45;;;;;;;3.47;2.97;;;18.80;99.90;;;;;;4963966;28;20208;-64
2023/05/23 00:37:14;;;;;;;3.63;1.98;;;18.80;99.90;;;;;;4965347;28;20232;-64
2023/05/23 00:39:41;;;;;;;2.67;2.45;;;18.70;99.90;;;;;;4963186;28;20206;-64
2023/05/23 00:42:09;;;;;;;3.42;3.13;;;18.70;99.90;;;;;;4961783;28;20798;-64
2023/05/23 00:44:37;;;;;;;2.40;2.22;;;18.70;99.90;;;;;;4962327;28;20207;-64
2023/05/23 00:47:08;;;;;;;2.67;2.47;;;18.70;99.90;;;;;;4965443;28;20211;-64
2023/05/23 00:49:36;;;;;;;2.28;2.15;;;18.70;99.90;;;;;;4960902;28;20216;-64
2023/05/23 00:52:04;;;;;;;3.90;3.60;;;18.80;99.90;;;;;;4964646;28;20245;-64
2023/05/23 00:54:33;;;;;;;2.30;2.10;;;18.70;99.90;;;;;;4965255;28;20242;-64
2023/05/23 00:57:01;;;;;;;3.25;2.90;;;18.60;99.90;;;;;;4954050;28;20207;-64
2023/05/23 00:59:30;;;;;;;2.90;2.70;;;18.60;99.90;;;;;;4961987;28;20562;-64
2023/05/23 01:01:59;;;;;;;4.82;2.42;;;18.60;99.90;;;;;;4964257;28;20241;-64
2023/05/23 01:04:32;;;;;;;2.22;2.13;;;18.50;99.90;;;;;;4965018;28;20205;-64
2023/05/23 01:07:01;;;;;;;3.78;3.42;;;18.50;99.90;;;;;;4954165;28;20211;-64
2023/05/23 01:09:29;;;;;;;4.05;3.35;;;18.50;99.90;;;;;;4953657;28;20313;-64
2023/05/23 01:12:11;;;;;;;4.93;3.65;;;18.40;99.90;;;;;;4960114;28;20235;-64
2023/05/23 01:14:46;;;;;;;3.15;2.85;;;18.40;99.90;;;;;;4961145;28;20709;-64
2023/05/23 01:17:20;;;;;;;4.50;4.10;;;18.40;99.90;;;;;;4961765;28;20665;-64
2023/05/23 01:20:08;;;;;;;3.72;3.42;;;18.40;99.90;;;;;;4961588;28;20210;-64
2023/05/23 01:22:55;;;;;;;3.30;3.00;;;18.40;99.90;;;;;;4964062;28;20207;-64
2023/05/23 01:25:35;;;;;;;4.53;3.17;;;18.40;99.90;;;;;;4961331;28;20218;-64
2023/05/23 01:28:07;;;;;;;3.08;2.80;;;18.30;99.90;;;;;;4953759;28;20207;-64
2023/05/23 01:30:39;;;;;;;3.20;2.75;;;18.30;99.90;;;;;;4948371;28;20262;-66
2023/05/23 01:33:10;;;;;;;3.33;3.00;;;18.30;99.90;;;;;;4952932;28;20226;-64
2023/05/23 01:35:38;;;;;;;2.97;2.67;;;18.30;99.90;;;;;;4950525;28;20230;-64
2023/05/23 01:38:06;;;;;;;2.67;2.47;;;18.30;99.90;;;;;;4954926;28;20214;-64
2023/05/23 01:40:34;;;;;;;2.10;1.88;;;18.20;99.90;;;;;;4949750;28;20227;-64
2023/05/23 01:43:25;;;;;;;3.22;2.35;;;18.20;99.90;;;;;;4948165;28;20204;-64
2023/05/23 01:45:56;;;;;;;3.72;3.42;;;18.10;99.90;;;;;;4950119;28;20222;-63
2023/05/23 01:48:26;;;;;;;2.63;2.42;;;18.00;99.90;;;;;;4949265;28;20295;-64
2023/05/23 01:50:55;;;;;;;3.15;2.25;;;18.00;99.90;;;;;;4951541;28;20234;-64
2023/05/23 01:53:24;;;;;;;3.50;2.20;;;18.10;99.90;;;;;;4952983;28;20218;-64
2023/05/23 01:55:52;;;;;;;4.40;3.60;;;18.00;99.90;;;;;;4950422;28;20215;-63
2023/05/23 01:58:20;;;;;;;4.38;3.40;;;17.90;99.90;;;;;;4950997;28;20210;-63
2023/05/23 02:00:50;;;;;;;3.70;2.55;;;17.80;99.90;;;;;;4950028;28;20254;-64
2023/05/23 02:03:18;;;;;;;2.80;2.60;;;17.70;99.90;;;;;;4949421;28;20215;-64
2023/05/23 02:05:46;;;;;;;2.60;2.40;;;17.70;99.90;;;;;;4950147;28;20290;-64
2023/05/23 02:08:14;;;;;;;4.60;3.13;;;17.60;99.90;;;;;;4945251;28;20207;-64
2023/05/23 02:10:42;;;;;;;3.72;2.55;;;17.60;99.90;;;;;;4950982;28;20226;-64
2023/05/23 02:13:10;;;;;;;3.03;2.10;;;17.50;99.90;;;;;;4948157;28;20203;-65
2023/05/23 02:15:38;;;;;;;3.25;2.97;;;17.50;99.90;;;;;;4950464;28;20634;-65
2023/05/23 02:18:07;;;;;;;3.10;2.55;;;17.40;99.90;;;;;;4951243;28;20207;-65
2023/05/23 02:20:35;;;;;;;2.85;2.60;;;17.40;99.90;;;;;;4949552;28;20327;-65
2023/05/23 02:23:03;;;;;;;2.60;2.40;;;17.40;99.90;;;;;;4950260;28;20586;-66
2023/05/23 02:25:31;;;;;;;2.80;2.40;;;17.30;99.90;;;;;;4949424;28;20547;-65
2023/05/23 02:27:59;;;;;;;3.38;2.38;;;17.30;99.90;;;;;;4950349;28;20237;-65
2023/05/23 02:30:27;;;;;;;2.20;2.10;;;17.30;99.90;;;;;;4953713;28;20233;-66
2023/05/23 02:32:56;;;;;;;2.90;1.92;;;17.30;99.90;;;;;;4951855;28;20203;-66
2023/05/23 02:35:25;;;;;;;3.90;2.75;;;17.20;99.90;;;;;;4954582;28;20646;-64
2023/05/23 02:37:53;;;;;;;1.75;1.65;;;17.20;99.90;;;;;;4954975;28;20671;-64
2023/05/23 02:40:21;;;;;;;2.65;2.45;;;17.20;99.90;;;;;;4953815;28;20223;-65
2023/05/23 02:42:49;;;;;;;2.33;2.13;;;17.10;99.90;;;;;;4952588;28;20210;-64
2023/05/23 02:45:17;;;;;;;3.05;2.80;;;17.00;99.90;;;;;;4954368;28;20206;-64
2023/05/23 02:47:45;;;;;;;2.30;2.08;;;17.00;99.90;;;;;;4954330;28;20214;-64
2023/05/23 02:50:13;;;;;;;2.15;1.95;;;17.00;99.90;;;;;;4951982;28;20235;-64
2023/05/23 02:52:43;;;;;;;2.03;1.83;;;17.00;99.90;;;;;;4953075;28;20210;-64
2023/05/23 02:55:10;;;;;;;2.92;2.47;;;17.00;99.90;;;;;;4952733;28;20231;-64
2023/05/23 02:57:38;;;;;;;6.95;2.45;;;17.00;99.90;;;;;;4958052;28;20274;-64
2023/05/23 03:00:09;;;;;;;2.17;2.03;;;17.10;99.90;;;;;;4953221;28;20207;-64
2023/05/23 03:02:37;;;;;;;2.08;1.88;;;17.20;99.90;;;;;;4953630;28;20204;-64
2023/05/23 03:05:06;;;;;;;2.40;2.20;;;17.10;99.90;;;;;;4950091;28;20226;-64
2023/05/23 03:07:34;;;;;;;2.63;2.42;;;17.00;99.90;;;;;;4954319;28;20239;-65
2023/05/23 03:10:03;;;;;;;1.67;1.58;;;17.00;99.90;;;;;;4963382;28;20210;-65
2023/05/23 03:12:31;;;;;;;2.22;1.58;;;17.00;99.90;;;;;;4959340;28;20258;-64
2023/05/23 03:14:59;;;;;;;3.40;1.90;;;16.90;99.90;;;;;;4950014;28;20302;-65
2023/05/23 03:17:27;;;;;;;2.78;2.58;;;16.90;99.90;;;;;;4951746;28;20737;-65
2023/05/23 03:19:55;;;;;;;2.22;2.08;;;16.70;99.90;;;;;;4952072;28;20215;-64
2023/05/23 03:22:23;;;;;;;2.22;1.70;;;16.60;99.90;;;;;;4954195;28;20218;-64
2023/05/23 03:24:52;;;;;;;2.30;1.95;;;16.60;99.90;;;;;;4953618;28;20207;-64
2023/05/23 03:27:21;;;;;;;2.58;1.77;;;16.60;99.90;;;;;;4952798;28;20262;-64
2023/05/23 03:29:49;;;;;;;2.30;2.10;;;16.50;99.90;;;;;;4952157;28;20211;-65
2023/05/23 03:32:17;;;;;;;3.47;2.33;;;16.40;99.90;;;;;;4953276;28;20223;-64
2023/05/23 03:34:45;;;;;;;3.33;2.45;;;16.40;99.90;;;;;;4951245;28;20367;-65
2023/05/23 03:37:13;;;;;;;3.72;2.70;;;16.30;99.90;;;;;;4963840;28;20207;-65
2023/05/23 03:39:41;;;;;;;3.70;2.65;;;16.30;99.90;;;;;;4953489;28;20238;-64
2023/05/23 03:42:09;;;;;;;3.28;2.80;;;16.20;99.90;;;;;;4949599;28;20760;-64
2023/05/23 03:44:38;;;;;;;5.40;3.20;;;16.20;99.90;;;;;;4950665;28;20195;-65
2023/05/23 03:47:11;;;;;;;2.60;2.38;;;16.10;99.90;;;;;;4953354;28;20207;-65
2023/05/23 03:49:39;;;;;;;5.10;2.63;;;16.20;99.90;;;;;;4951998;28;20208;-65
2023/05/23 03:52:07;;;;;;;2.42;2.20;;;16.30;99.90;;;;;;4952154;28;20231;-64
2023/05/23 03:54:35;;;;;;;3.53;2.67;;;16.30;99.90;;;;;;4949645;28;20219;-64
2023/05/23 03:57:04;;;;;;;1.92;1.80;;;16.20;99.90;;;;;;4952915;28;20226;-64
2023/05/23 03:59:32;;;;;;;6.68;3.80;;;16.30;99.90;;;;;;4949752;28;20207;-64
2023/05/23 04:02:01;;;;;;;4.28;3.05;;;16.40;99.90;;;;;;4951179;28;20243;-65
2023/05/23 04:04:29;;;;;;;5.85;3.75;;;16.30;99.90;;;;;;4950589;28;20199;-64
2023/05/23 04:06:58;;;;;;;2.50;2.15;;;16.40;99.90;;;;;;4953698;28;20215;-64
2023/05/23 04:09:26;;;;;;;3.38;3.08;;;16.30;99.90;;;;;;4949671;28;20222;-65
2023/05/23 04:11:54;;;;;;;3.85;2.85;;;16.30;99.90;;;;;;4951958;28;20230;-63
2023/05/23 04:14:24;;;;;;;5.45;3.65;;;16.30;99.90;;;;;;4951317;28;20207;-64
2023/05/23 04:16:52;;;;;;;3.08;2.60;;;16.30;99.90;;;;;;4953746;28;20211;-65
2023/05/23 04:19:21;;;;;;;4.32;3.47;;;16.20;99.90;;;;;;4957929;28;20207;-64
2023/05/23 04:21:49;;;;;;;2.55;2.20;;;16.20;99.90;;;;;;4952943;28;20239;-65
2023/05/23 04:24:17;;;;;;;4.38;3.00;;;16.30;99.90;;;;;;4960396;28;20206;-64
2023/05/23 04:26:45;;;;;;;3.90;2.28;;;16.30;99.90;;;;;;4949491;28;20307;-64
2023/05/23 04:29:13;;;;;;;2.83;1.90;;;16.40;99.90;;;;;;4951536;28;20265;-64
2023/05/23 04:31:44;;;;;;;2.30;2.10;;;16.50;99.90;;;;;;4951549;28;20622;-64
2023/05/23 04:34:13;;;;;;;4.93;3.22;;;16.60;99.90;;;;;;4948923;28;20229;-65
2023/05/23 04:36:43;;;;;;;2.47;2.08;;;16.60;99.90;;;;;;4952614;28;20331;-64
2023/05/23 04:39:11;;;;;;;1.95;1.80;;;16.60;99.90;;;;;;4949020;29;20214;-64
2023/05/23 04:41:39;;;;;;;2.45;2.17;;;16.50;99.90;;;;;;4948479;28;20231;-64
2023/05/23 04:44:08;;;;;;;2.13;1.92;;;16.50;99.90;;;;;;4954331;28;20289;-64
2023/05/23 04:46:40;;;;;;;2.17;2.03;;;16.50;99.90;;;;;;4948899;28;20559;-63
2023/05/23 04:49:09;;;;;;;3.67;2.83;;;16.40;99.90;;;;;;4952311;28;20711;-64
2023/05/23 04:51:37;;;;;;;4.25;2.53;;;16.40;99.90;;;;;;4951716;28;20236;-64
2023/05/23 04:54:06;;;;;;;4.78;2.65;;;16.40;99.90;;;;;;4957613;28;20199;-63
2023/05/23 04:56:34;;;;;;;2.08;1.83;;;16.40;99.90;;;;;;4949968;28;20223;-63
2023/05/23 04:59:02;;;;;;;2.25;2.05;;;16.40;99.90;;;;;;4949273;28;20239;-64
2023/05/23 05:01:30;;;;;;;4.38;2.45;;;16.40;99.90;;;;;;4951535;28;20238;-64
2023/05/23 05:03:59;;;;;;;3.53;2.30;;;16.30;99.90;;;;;;4952729;28;20211;-63
2023/05/23 05:06:27;;;;;;;2.22;2.03;;;16.20;99.90;;;;;;4949116;28;20202;-64
2023/05/23 05:08:55;;;;;;;3.70;2.45;;;16.20;99.90;;;;;;4949391;28;20211;-64
2023/05/23 05:11:26;;;;;;;2.90;2.70;;;16.20;99.90;;;;;;4950405;28;20231;-63
2023/05/23 05:13:54;;;;;;;2.78;2.17;;;16.20;99.90;;;;;;4945553;28;20625;-65
2023/05/23 05:16:21;;;;;;;2.70;1.85;;;16.20;99.90;;;;;;4951722;28;20229;-63
2023/05/23 05:18:50;;;;;;;2.13;1.60;;;16.20;99.90;;;;;;4949588;28;20278;-64
2023/05/23 05:21:18;;;;;;;3.63;3.17;;;16.30;99.90;;;;;;4959663;28;20338;-64
2023/05/23 05:23:46;;;;;;;2.80;2.20;;;16.40;99.90;;;;;;4949149;29;20625;-64
2023/05/23 05:26:14;;;;;;;1.75;1.65;;;16.40;99.90;;;;;;4950042;28;20203;-64
2023/05/23 05:28:43;;;;;;;2.13;2.03;;;16.40;99.90;;;;;;4949106;28;20199;-64
2023/05/23 05:31:14;;;;;;;2.70;2.35;;;16.60;99.90;;;;;;4957115;28;20246;-63
2023/05/23 05:33:44;;;;;;;3.13;2.92;;;16.50;99.90;;;;;;4954634;28;20207;-64
2023/05/23 05:36:12;;;;;;;2.05;1.85;;;16.50;99.90;;;;;;4950499;28;20219;-64
2023/05/23 05:38:40;;;;;;;2.63;2.40;;;16.50;99.90;;;;;;4949456;28;20262;-64
2023/05/23 05:41:08;;;;;;;3.25;3.05;;;16.60;99.90;;;;;;4950603;28;20225;-64
2023/05/23 05:43:36;;;;;;;2.65;2.45;;;16.60;99.90;;;;;;4949032;28;20737;-64
2023/05/23 05:46:05;;;;;;;2.80;2.60;;;16.70;99.90;;;;;;4945684;28;20208;-65
2023/05/23 05:48:33;;;;;;;1.90;1.73;;;16.80;99.90;;;;;;4948486;28;20210;-64
2023/05/23 05:51:02;;;;;;;2.55;2.10;;;16.80;99.90;;;;;;4943120;28;20234;-65
2023/05/23 05:53:30;;;;;;;1.50;1.13;;;16.90;99.90;;;;;;4946806;28;20219;-64
2023/05/23 05:55:57;;;;;;;1.73;1.50;;;17.10;99.90;;;;;;4945760;28;20231;-64
2023/05/23 05:58:25;;;;;;;2.58;1.67;;;17.00;99.90;;;;;;4951312;28;20202;-63
2023/05/23 06:00:55;;;;;;;1.52;1.33;;;17.10;99.90;;;;;;4949843;28;20239;-63
2023/05/23 06:03:24;;;;;;;1.30;1.23;;;17.20;99.90;;;;;;4949897;28;20207;-63
2023/05/23 06:05:53;;;;;;;1.15;0.73;;;17.30;99.90;;;;;;4948640;28;20559;-63
2023/05/23 06:08:20;;;;;;;1.02;0.90;;;17.40;99.90;;;;;;4948856;28;20616;-63
2023/05/23 06:10:48;;;;;;;1.90;1.48;;;17.50;99.90;;;;;;4946933;28;20238;-63
2023/05/23 06:13:16;;;;;;;1.92;1.33;;;17.30;99.90;;;;;;4942000;28;20230;-64
2023/05/23 06:15:44;;;;;;;1.25;1.15;;;17.20;99.90;;;;;;4948550;28;20270;-66
2023/05/23 06:18:12;;;;;;;2.25;1.70;;;17.10;99.90;;;;;;4951550;28;20266;-64
2023/05/23 06:20:42;;;;;;;1.33;0.98;;;17.00;99.90;;;;;;4946830;28;20278;-64
2023/05/23 06:23:10;;;;;;;2.00;1.80;;;17.00;99.90;;;;;;4947340;29;20207;-63
2023/05/23 06:25:38;;;;;;;1.35;1.10;;;16.90;99.90;;;;;;4949155;28;20250;-62
2023/05/23 06:28:06;;;;;;;1.70;1.60;;;16.80;99.90;;;;;;4949387;28;20210;-64
2023/05/23 06:30:34;;;;;;;1.80;1.60;;;16.80;99.90;;;;;;4955470;28;20229;-64
2023/05/23 06:33:04;;;;;;;1.35;1.08;;;16.70;99.90;;;;;;4961634;28;20210;-64
2023/05/23 06:35:32;;;;;;;2.30;1.70;;;16.70;99.90;;;;;;4961025;28;20673;-64
2023/05/23 06:38:02;;;;;;;1.48;1.38;;;16.70;99.90;;;;;;4962910;28;20210;-64
2023/05/23 06:40:29;;;;;;;1.50;1.40;;;16.80;99.90;;;;;;4960820;28;20281;-64
2023/05/23 06:42:57;;;;;;;3.58;1.73;;;16.90;99.90;;;;;;4952259;29;20215;-64
2023/05/23 06:45:25;;;;;;;2.15;2.00;;;17.00;99.90;;;;;;4956701;28;20206;-65
2023/05/23 06:47:53;;;;;;;2.03;1.90;;;17.10;99.90;;;;;;4963884;28;20202;-64
2023/05/23 06:50:21;;;;;;;2.25;2.05;;;17.10;99.90;;;;;;4950503;28;20310;-64
2023/05/23 06:52:49;;;;;;;1.60;1.50;;;17.10;99.90;;;;;;4963860;28;20214;-64
2023/05/23 06:55:19;;;;;;;1.73;1.35;;;17.20;99.90;;;;;;4960547;28;20211;-64
2023/05/23 06:57:50;;;;;;;1.92;1.48;;;17.10;99.90;;;;;;4960446;28;20594;-64
2023/05/23 07:00:19;;;;;;;1.88;1.20;;;17.00;99.90;;;;;;4963100;28;20768;-65
2023/05/23 07:02:47;;;;;;;1.77;1.65;;;16.90;99.90;;;;;;4963912;28;20261;-64
2023/05/23 07:05:16;;;;;;;1.45;1.35;;;16.90;99.90;;;;;;4954600;28;20287;-64
2023/05/23 07:07:44;;;;;;;1.42;1.33;;;16.90;99.90;;;;;;4960477;28;20213;-64
2023/05/23 07:10:12;;;;;;;2.40;2.22;;;16.80;99.90;;;;;;4962038;28;20211;-63
2023/05/23 07:12:41;;;;;;;0.90;0.90;;;16.60;99.90;;;;;;4960469;28;20229;-64
2023/05/23 07:15:11;;;;;;;1.50;1.40;;;16.60;99.90;;;;;;4962043;28;20211;-64
2023/05/23 07:17:39;;;;;;;0.90;0.82;;;16.70;99.90;;;;;;4965316;28;20230;-64
2023/05/23 07:20:08;;;;;;;1.50;1.40;;;16.90;99.90;;;;;;4959280;28;20222;-64
2023/05/23 07:22:36;;;;;;;0.93;0.85;;;17.20;99.90;;;;;;4967077;28;20206;-64
2023/05/23 07:25:04;;;;;;;1.25;1.10;;;17.40;99.90;;;;;;4965830;28;20219;-64
2023/05/23 07:27:32;;;;;;;1.65;1.55;;;17.70;99.90;;;;;;4963799;28;20207;-64
2023/05/23 07:30:01;;;;;;;0.80;0.80;;;17.90;99.90;;;;;;4963884;28;20223;-64
2023/05/23 07:32:29;;;;;;;1.13;1.05;;;18.10;99.90;;;;;;4966900;28;20213;-64
2023/05/23 07:34:57;;;;;;;1.17;1.08;;;18.20;99.90;;;;;;4959272;28;20266;-64
2023/05/23 07:37:26;;;;;;;1.20;1.10;;;18.20;99.90;;;;;;4963401;28;20245;-64
2023/05/23 07:39:54;;;;;;;0.70;0.50;;;18.00;99.90;;;;;;4963138;28;20207;-64
2023/05/23 07:42:22;;;;;;;1.08;0.90;;;17.70;99.90;;;;;;4955328;28;20222;-64
2023/05/23 07:44:50;;;;;;;0.60;0.60;;;17.60;99.90;;;;;;4955517;29;20218;-64
2023/05/23 07:47:19;;;;;;;1.10;1.00;;;17.50;99.90;;;;;;4966079;28;20207;-64
2023/05/23 07:49:47;;;;;;;1.00;1.00;;;17.50;99.90;;;;;;4962652;28;20215;-66
2023/05/23 07:52:15;;;;;;;0.75;0.73;;;17.40;99.90;;;;;;4965235;28;20369;-64
2023/05/23 07:54:43;;;;;;;1.00;0.90;;;17.50;99.90;;;;;;4966815;28;20210;-64
2023/05/23 07:57:11;;;;;;;1.20;1.10;;;17.50;99.90;;;;;;4964415;28;20237;-64
2023/05/23 07:59:39;;;;;;;1.05;0.93;;;17.40;99.90;;;;;;4963127;28;20596;-64
2023/05/23 08:02:07;;;;;;;0.68;0.68;;;17.50;99.90;;;;;;4963763;28;20620;-64
2023/05/23 08:04:36;;;;;;;0.98;0.98;;;17.60;99.90;;;;;;4966333;28;20210;-64
2023/05/23 08:07:04;;;;;;;0.88;0.60;;;17.80;99.90;;;;;;4965380;28;20260;-64
2023/05/23 08:09:33;;;;;;;0.95;0.77;;;18.10;99.90;;;;;;4962741;28;20203;-64
2023/05/23 08:12:01;;;;;;;1.15;0.88;;;18.30;99.90;;;;;;4956739;28;20238;-64
2023/05/23 08:14:29;;;;;;;0.93;0.82;;;18.50;99.90;;;;;;4954805;29;20225;-64
2023/05/23 08:17:16;;;;;;;1.15;0.85;;;18.50;99.90;;;;;;4969816;28;20309;-64
2023/05/23 08:19:46;;;;;;;0.60;0.50;;;18.60;99.90;;;;;;4962530;28;20289;-64
2023/05/23 08:22:14;;;;;;;0.80;0.60;;;18.50;99.90;;;;;;4964340;28;20230;-64
2023/05/23 08:24:42;;;;;;;0.70;0.60;;;18.50;99.90;;;;;;4956759;28;20206;-64
2023/05/23 08:27:10;;;;;;;0.70;0.70;;;18.50;99.90;;;;;;4964296;28;20207;-64
2023/05/23 08:29:38;;;;;;;0.60;0.50;;;18.40;99.90;;;;;;4961780;28;20682;-64
2023/05/23 08:32:05;;;;;;;0.80;0.70;;;18.20;99.90;;;;;;4962087;28;20600;-64
2023/05/23 08:34:34;;;;;;;0.80;0.80;;;18.20;99.90;;;;;;4966039;28;20583;-64
2023/05/23 08:37:03;;;;;;;0.80;0.65;;;18.20;99.90;;;;;;4965269;28;20233;-65
2023/05/23 08:39:31;;;;;;;1.00;0.90;;;18.30;99.90;;;;;;4962372;28;20226;-64
2023/05/23 08:41:59;;;;;;;0.70;0.60;;;18.40;99.90;;;;;;4956492;28;20235;-64
2023/05/23 08:44:27;;;;;;;0.68;0.60;;;18.40;99.90;;;;;;4954454;28;20662;-64
2023/05/23 08:46:57;;;;;;;0.85;0.57;;;18.50;99.90;;;;;;4962372;28;20294;-64
2023/05/23 08:49:25;;;;;;;1.13;1.02;;;18.50;99.90;;;;;;4953759;29;20559;-64
2023/05/23 08:51:57;;;;;;;0.70;0.70;;;18.60;99.90;;;;;;4962327;28;20231;-64
2023/05/23 08:54:28;;;;;;;0.80;0.75;;;18.70;99.90;;;;;;4954195;28;20203;-64
2023/05/23 08:56:56;;;;;;;0.73;0.65;;;18.80;99.90;;;;;;4962155;28;20222;-64
2023/05/23 08:59:25;;;;;;;0.90;0.75;;;19.00;99.90;;;;;;4964805;28;20207;-64
2023/05/23 09:01:56;;;;;;;1.25;0.82;;;18.80;99.90;;;;;;4964877;28;20238;-64
2023/05/23 09:04:24;;;;;;;0.70;0.57;;;18.70;99.90;;;;;;4954384;28;20697;-64
2023/05/23 09:06:52;;;;;;;1.00;0.77;;;18.60;99.90;;;;;;4961848;28;20298;-64
2023/05/23 09:09:20;;;;;;;0.93;0.80;;;18.50;99.90;;;;;;4964238;28;20694;-64
2023/05/23 09:11:50;;;;;;;0.80;0.68;;;18.50;99.90;;;;;;4964735;28;20721;-64
2023/05/23 09:14:18;;;;;;;1.15;0.85;;;18.50;99.90;;;;;;4962528;28;20222;-64
2023/05/23 09:16:47;;;;;;;0.95;0.90;;;18.50;99.90;;;;;;4961826;28;20211;-64
2023/05/23 09:19:16;;;;;;;1.02;0.52;;;18.50;99.90;;;;;;4963463;28;20227;-64
2023/05/23 09:21:44;;;;;;;1.23;1.13;;;18.50;99.90;;;;;;4958640;28;20238;-64
2023/05/23 09:24:12;;;;;;;0.75;0.75;;;18.40;99.90;;;;;;4959051;28;20686;-64
2023/05/23 09:26:40;;;;;;;0.70;0.68;;;18.30;99.90;;;;;;4959747;28;20217;-63
2023/05/23 09:29:09;;;;;;;0.70;0.60;;;18.40;99.90;;;;;;4954124;28;20214;-64
2023/05/23 09:31:37;;;;;;;0.82;0.82;;;18.40;99.90;;;;;;4964467;28;20701;-64
2023/05/23 09:34:05;;;;;;;0.70;0.60;;;18.40;99.90;;;;;;4963896;28;20216;-64
2023/05/23 09:36:34;;;;;;;1.65;0.77;;;18.40;99.90;;;;;;4963869;28;20210;-64
2023/05/23 09:39:04;;;;;;;1.17;0.93;;;18.60;99.90;;;;;;4964855;28;20281;-64
2023/05/23 09:41:34;;;;;;;0.70;0.70;;;19.00;99.90;;;;;;4946056;28;20265;-63
2023/05/23 09:44:06;;;;;;;1.13;1.00;;;19.40;99.90;;;;;;4952690;29;20728;-63
2023/05/23 09:46:37;;;;;;;0.70;0.70;;;19.90;99.90;;;;;;4946042;28;20271;-64
2023/05/23 09:49:16;;;;;;;0.60;0.43;;;20.50;99.90;;;;;;4953040;28;20203;-63
2023/05/23 09:51:56;;;;;;;0.93;0.82;;;20.60;99.90;;;;;;4953345;28;20231;-64
2023/05/23 09:54:24;;;;;;;0.60;0.60;;;20.50;99.90;;;;;;4952285;28;20725;-65
2023/05/23 09:56:54;;;;;;;0.70;0.70;;;20.40;99.90;;;;;;4953135;28;20234;-64
2023/05/23 09:59:23;;;;;;;1.23;1.08;;;20.40;99.90;;;;;;4952708;28;20230;-64
2023/05/23 10:01:56;;;;;;;0.80;0.70;;;20.30;99.90;;;;;;4952621;28;20250;-64
2023/05/23 10:04:25;;;;;;;1.15;1.05;;;20.00;99.90;;;;;;4952725;28;20203;-64
2023/05/23 10:06:58;;;;;;;1.80;0.80;;;19.90;99.90;;;;;;4952968;28;20212;-64
2023/05/23 10:09:31;;;;;;;0.80;0.80;;;19.70;99.90;;;;;;4952491;28;20574;-64
2023/05/23 10:12:31;;;;;;;1.17;0.70;;;19.50;99.90;;;;;;4959807;28;20230;-64
2023/05/23 10:15:03;;;;;;;0.90;0.77;;;19.60;99.90;;;;;;4948896;29;20215;-65
2023/05/23 10:17:40;;;;;;;0.80;0.55;;;19.50;99.90;;;;;;4953199;28;20210;-64
2023/05/23 10:20:11;;;;;;;0.90;0.90;;;19.50;99.90;;;;;;4960879;28;20222;-64
2023/05/23 10:22:40;;;;;;;0.70;0.60;;;19.30;99.90;;;;;;4963911;28;20664;-64
2023/05/23 10:25:09;;;;;;;0.70;0.60;;;19.30;99.90;;;;;;4963658;28;20214;-64
2023/05/23 10:27:37;;;;;;;1.27;0.70;;;19.10;99.90;;;;;;4956614;28;20202;-64
2023/05/23 10:30:07;;;;;;;1.23;1.13;;;19.00;99.90;;;;;;4963869;28;20591;-64
2023/05/23 10:32:39;;;;;;;1.08;0.98;;;19.00;99.90;;;;;;4953240;28;20210;-64
2023/05/23 10:35:15;;;;;;;1.08;0.70;;;18.90;99.90;;;;;;4961178;28;20206;-64
2023/05/23 10:37:49;;;;;;;0.90;0.70;;;18.80;99.90;;;;;;4964035;28;20210;-64
2023/05/23 10:40:39;;;;;;;1.17;1.08;;;18.70;99.90;;;;;;4961891;28;20244;-65
2023/05/23 10:43:16;;;;;;;0.80;0.80;;;18.70;99.90;;;;;;4949196;28;20753;-64
2023/05/23 10:45:44;;;;;;;1.23;0.80;;;18.70;99.90;;;;;;4960687;28;20202;-64
2023/05/23 10:48:22;;;;;;;1.05;0.95;;;18.70;99.90;;;;;;4961169;28;20675;-64
2023/05/23 10:51:04;;;;;;;1.13;1.02;;;18.60;99.90;;;;;;4963585;28;20232;-64
2023/05/23 10:53:35;;;;;;;1.23;1.13;;;18.70;99.90;;;;;;4955836;28;20214;-64
2023/05/23 10:56:06;;;;;;;1.20;1.10;;;18.60;99.90;;;;;;4964426;28;20266;-63
2023/05/23 10:58:34;;;;;;;0.98;0.98;;;18.60;99.90;;;;;;4959513;28;20656;-64
2023/05/23 11:01:06;;;;;;;0.70;0.68;;;18.50;99.90;;;;;;4963603;28;20294;-64
2023/05/23 11:03:51;;;;;;;0.93;0.60;;;18.40;99.90;;;;;;4956299;28;20226;-64
2023/05/23 11:06:34;;;;;;;0.60;0.60;;;18.40;99.90;;;;;;4964007;28;20209;-64
2023/05/23 11:09:03;;;;;;;1.35;0.75;;;18.40;99.90;;;;;;4964184;28;20202;-64
2023/05/23 11:11:56;;;;;;;0.82;0.70;;;18.40;99.90;;;;;;4956992;28;20645;-64
2023/05/23 11:14:52;;;;;;;1.05;0.75;;;18.50;99.90;;;;;;4963654;28;20214;-64
2023/05/23 11:17:32;;;;;;;1.80;1.70;;;18.50;99.90;;;;;;4965704;28;20219;-64
2023/05/23 11:20:05;;;;;;;0.80;0.63;;;18.60;99.90;;;;;;4963371;28;20219;-63
2023/05/23 11:22:33;;;;;;;1.02;0.80;;;18.70;99.90;;;;;;4959076;28;20756;-64
2023/05/23 11:25:06;;;;;;;0.60;0.60;;;18.90;99.90;;;;;;4963802;28;20221;-64
2023/05/23 11:27:36;;;;;;;1.23;1.10;;;18.90;99.90;;;;;;4955971;28;20678;-63
2023/05/23 11:30:07;;;;;;;1.27;1.17;;;18.90;99.90;;;;;;4963691;28;20211;-64
2023/05/23 11:32:36;;;;;;;1.17;0.95;;;18.70;99.90;;;;;;4951176;28;20202;-64
2023/05/23 11:35:08;;;;;;;0.82;0.70;;;18.60;99.90;;;;;;4966904;28;20677;-64
2023/05/23 11:37:38;;;;;;;0.60;0.60;;;18.50;99.90;;;;;;4950446;28;20206;-64
2023/05/23 11:40:26;;;;;;;1.23;0.85;;;18.40;99.90;;;;;;4963522;28;20708;-64
2023/05/23 11:42:55;;;;;;;0.70;0.60;;;18.30;99.90;;;;;;4949891;28;20265;-64
2023/05/23 11:45:23;;;;;;;0.70;0.70;;;18.30;99.90;;;;;;4956989;28;20207;-64
2023/05/23 11:47:51;;;;;;;0.60;0.60;;;18.40;99.90;;;;;;4966835;28;20203;-64
2023/05/23 11:50:21;;;;;;;1.15;1.05;;;18.50;99.90;;;;;;4965046;28;20313;-64
2023/05/23 11:52:51;;;;;;;0.75;0.75;;;18.70;99.90;;;;;;4957265;28;20226;-64
2023/05/23 11:55:19;;;;;;;0.68;0.60;;;18.80;99.90;;;;;;4964268;28;20210;-65
2023/05/23 11:57:48;;;;;;;0.90;0.75;;;19.00;99.90;;;;;;4966525;28;20293;-64
2023/05/23 12:00:17;;;;;;;0.60;0.50;;;19.50;99.90;;;;;;4965199;28;20238;-65
2023/05/23 12:02:46;;;;;;;1.00;0.70;;;20.00;99.90;;;;;;4962402;28;20207;-64
2023/05/23 12:05:14;;;;;;;0.68;0.63;;;20.30;99.90;;;;;;4962512;28;20202;-64
2023/05/23 12:07:45;;;;;;;0.80;0.70;;;20.80;99.90;;;;;;4966563;28;20673;-64
2023/05/23 12:10:15;;;;;;;0.70;0.45;;;21.30;99.90;;;;;;4954172;28;20290;-64
2023/05/23 12:12:44;;;;;;;0.60;0.50;;;21.40;99.90;;;;;;4947472;28;20206;-64
2023/05/23 12:15:13;;;;;;;0.70;0.50;;;21.80;99.90;;;;;;4955089;28;20215;-65
2023/05/23 12:17:45;;;;;;;1.05;0.80;;;22.00;99.90;;;;;;4966305;28;20210;-64
2023/05/23 12:20:13;;;;;;;0.75;0.60;;;22.10;99.90;;;;;;4965837;28;20714;-64
2023/05/23 12:22:42;;;;;;;0.70;0.50;;;22.60;99.90;;;;;;4962388;28;20203;-64
2023/05/23 12:25:11;;;;;;;0.80;0.80;;;22.50;99.90;;;;;;4962550;28;20265;-64
2023/05/23 12:27:42;;;;;;;0.70;0.60;;;22.50;99.90;;;;;;4955247;28;20208;-64
2023/05/23 12:30:13;;;;;;;0.60;0.50;;;22.40;99.90;;;;;;4962446;28;20703;-63
2023/05/23 12:32:41;;;;;;;0.93;0.82;;;22.30;99.90;;;;;;4954861;28;20223;-65
2023/05/23 12:35:12;;;;;;;0.98;0.80;;;22.00;99.90;;;;;;4966250;28;20225;-64
2023/05/23 12:37:41;;;;;;;0.60;0.40;;;21.70;99.90;;;;;;4954846;28;20287;-64
2023/05/23 12:40:13;;;;;;;0.70;0.60;;;21.80;99.90;;;;;;4962282;28;20224;-63
2023/05/23 12:42:50;;;;;;;3.75;0.80;;;21.60;99.90;;;;;;4954004;28;20633;-64
2023/05/23 12:45:18;;;;;;;0.68;0.63;;;21.50;99.90;;;;;;4954818;28;20223;-64
2023/05/23 12:47:46;;;;;;;0.60;0.60;;;21.20;99.90;;;;;;4965491;28;20676;-64
2023/05/23 12:50:14;;;;;;;0.88;0.70;;;20.70;99.90;;;;;;4963891;28;20258;-64
2023/05/23 12:52:42;;;;;;;0.70;0.65;;;20.50;99.90;;;;;;4962529;28;20204;-64
2023/05/23 12:55:13;;;;;;;1.27;1.17;;;20.40;99.90;;;;;;4962038;28;20230;-64
2023/05/23 12:57:41;;;;;;;0.90;0.47;;;20.70;99.90;;;;;;4962067;28;20621;-64
2023/05/23 13:00:10;;;;;;;2.08;0.70;;;20.70;99.90;;;;;;4961584;28;20227;-64